This is the latest recevied weather packets stored in our database for station/object DG2GGP-11. If no packets are shown the sender has not sent any weather packets the latest 1 day(s).
| Time | Temp. | Humidity | Pressure | Rain* | Wind** | Luminosity | Snow |
|---|---|---|---|---|---|---|---|
| 1777979356 | 14.44° C | 78% | 1009.3 hPa | 0 mm | 0 m/s | 8 W/m² | - |
| 1777978757 | 13.89° C | 77% | 1009.4 hPa | 0 mm | 0 m/s | 9 W/m² | - |
| 1777978157 | 13.89° C | 79% | 1009.6 hPa | 0 mm | 1.79 m/s, 173° | 8 W/m² | - |
| 1777977557 | 13.33° C | 78% | 1009.7 hPa | 0 mm | 1.34 m/s, 135° | 8 W/m² | - |
| 1777976956 | 13.89° C | 77% | 1009.6 hPa | 0 mm | 3.13 m/s, 148° | 7 W/m² | - |
| 1777976356 | 14.44° C | 75% | 1009.6 hPa | 0 mm | 1.79 m/s, 145° | 8 W/m² | - |
| 1777975757 | 14.44° C | 72% | 1009.6 hPa | 0 mm | 2.24 m/s, 165° | 8 W/m² | - |
| 1777975157 | 15° C | 69% | 1009.6 hPa | 0 mm | 2.24 m/s, 148° | 9 W/m² | - |
| 1777974556 | 15.56° C | 67% | 1009.6 hPa | 0 mm | 1.79 m/s, 148° | 10 W/m² | - |
| 1777973957 | 15.56° C | 66% | 1009.6 hPa | 0 mm | 1.34 m/s, 135° | 11 W/m² | - |
| 1777973356 | 15.56° C | 65% | 1009.6 hPa | 0 mm | 1.34 m/s, 148° | 12 W/m² | - |
| 1777972757 | 15.56° C | 65% | 1009.6 hPa | 0 mm | 1.79 m/s, 170° | 15 W/m² | - |
| 1777972157 | 15.56° C | 64% | 1009.6 hPa | 0 mm | 1.34 m/s, 145° | 16 W/m² | - |
| 1777971556 | 15.56° C | 64% | 1009.6 hPa | 0 mm | 2.24 m/s, 133° | 17 W/m² | - |
| 1777970956 | 15.56° C | 65% | 1009.6 hPa | 0 mm | 2.24 m/s, 125° | 18 W/m² | - |
| 1777970357 | 16.11° C | 64% | 1009.6 hPa | 0 mm | 1.79 m/s, 150° | 19 W/m² | - |
| 1777969757 | 16.11° C | 64% | 1009.5 hPa | 0 mm | 2.24 m/s, 58° | 21 W/m² | - |
| 1777969157 | 15.56° C | 66% | 1009.6 hPa | 0 mm | 1.79 m/s, 65° | 18 W/m² | - |
| 1777968557 | 15.56° C | 66% | 1009.7 hPa | 0 mm | 1.79 m/s, 120° | 15 W/m² | - |
| 1777967957 | 15.56° C | 67% | 1009.8 hPa | 0 mm | 1.79 m/s, 180° | 18 W/m² | - |
| 1777967357 | 15.56° C | 66% | 1009.8 hPa | 0 mm | 1.79 m/s, 43° | 30 W/m² | - |
| 1777966756 | 15° C | 69% | 1010 hPa | 0 mm | 1.34 m/s, 240° | 22 W/m² | - |
| 1777966156 | 14.44° C | 71% | 1010 hPa | 0 mm | 0 m/s | 19 W/m² | - |
| 1777965557 | 13.89° C | 72% | 1010 hPa | 0 mm | 1.79 m/s, 8° | 17 W/m² | - |
| 1777964958 | 13.33° C | 77% | 1010.2 hPa | 0 mm | 0.89 m/s, 343° | 14 W/m² | - |
* Rain latest hour (hover to see other rain measurements)
** Current wind speed in m/s (hover to see current wind gust speed)